sensor_id;sensor_type;location;lat;lon;timestamp;pressure;altitude;pressure_sealevel;temperature;humidity
79221;BME280;72175;52.118;5.406;2024-03-25T00:00:46;100844.69;;;13.51;62.87
79221;BME280;72175;52.118;5.406;2024-03-25T00:03:12;100843.00;;;13.50;62.96
79221;BME280;72175;52.118;5.406;2024-03-25T00:05:37;100843.84;;;13.50;62.76
79221;BME280;72175;52.118;5.406;2024-03-25T00:08:03;100851.81;;;13.50;62.84
79221;BME280;72175;52.118;5.406;2024-03-25T00:10:28;100846.50;;;13.50;62.73
79221;BME280;72175;52.118;5.406;2024-03-25T00:12:54;100836.03;;;13.49;62.50
79221;BME280;72175;52.118;5.406;2024-03-25T00:15:22;100849.31;;;13.49;62.93
79221;BME280;72175;52.118;5.406;2024-03-25T00:17:51;100844.84;;;13.49;62.51
79221;BME280;72175;52.118;5.406;2024-03-25T00:20:17;100849.31;;;13.49;62.90
79221;BME280;72175;52.118;5.406;2024-03-25T00:22:43;100842.34;;;13.48;62.83
79221;BME280;72175;52.118;5.406;2024-03-25T00:25:08;100844.84;;;13.49;62.55
79221;BME280;72175;52.118;5.406;2024-03-25T00:27:38;100839.69;;;13.48;62.73
79221;BME280;72175;52.118;5.406;2024-03-25T00:30:14;100832.53;;;13.48;62.57
79221;BME280;72175;52.118;5.406;2024-03-25T00:32:39;100831.69;;;13.48;62.82
79221;BME280;72175;52.118;5.406;2024-03-25T00:35:06;100832.53;;;13.48;62.52
79221;BME280;72175;52.118;5.406;2024-03-25T00:37:31;100823.72;;;13.48;62.85
79221;BME280;72175;52.118;5.406;2024-03-25T00:39:57;100826.38;;;13.48;62.80
79221;BME280;72175;52.118;5.406;2024-03-25T00:42:23;100833.56;;;13.47;62.67
79221;BME280;72175;52.118;5.406;2024-03-25T00:44:48;100831.69;;;13.48;62.54
79221;BME280;72175;52.118;5.406;2024-03-25T00:47:14;100830.06;;;13.47;62.91
79221;BME280;72175;52.118;5.406;2024-03-25T00:49:40;100828.25;;;13.47;62.78
79221;BME280;72175;52.118;5.406;2024-03-25T00:52:16;100823.91;;;13.46;62.65
79221;BME280;72175;52.118;5.406;2024-03-25T00:54:47;100827.41;;;13.47;62.51
79221;BME280;72175;52.118;5.406;2024-03-25T00:57:13;100829.22;;;13.46;62.40
79221;BME280;72175;52.118;5.406;2024-03-25T00:59:38;100831.88;;;13.46;62.26
79221;BME280;72175;52.118;5.406;2024-03-25T01:02:04;100829.22;;;13.46;62.36
79221;BME280;72175;52.118;5.406;2024-03-25T01:04:30;100838.19;;;13.45;62.39
79221;BME280;72175;52.118;5.406;2024-03-25T01:06:58;100838.19;;;13.45;62.75
79221;BME280;72175;52.118;5.406;2024-03-25T01:09:23;100835.53;;;13.45;62.38
79221;BME280;72175;52.118;5.406;2024-03-25T01:11:53;100834.69;;;13.45;62.12
79221;BME280;72175;52.118;5.406;2024-03-25T01:14:19;100838.19;;;13.45;62.64
79221;BME280;72175;52.118;5.406;2024-03-25T01:16:57;100834.69;;;13.45;62.51
79221;BME280;72175;52.118;5.406;2024-03-25T01:19:23;100837.34;;;13.45;62.23
79221;BME280;72175;52.118;5.406;2024-03-25T01:21:48;100840.00;;;13.45;62.68
79221;BME280;72175;52.118;5.406;2024-03-25T01:24:15;100839.19;;;13.44;62.52
79221;BME280;72175;52.118;5.406;2024-03-25T01:26:41;100837.34;;;13.45;62.64
79221;BME280;72175;52.118;5.406;2024-03-25T01:29:07;100835.69;;;13.44;62.87
79221;BME280;72175;52.118;5.406;2024-03-25T01:31:33;100842.66;;;13.45;62.29
79221;BME280;72175;52.118;5.406;2024-03-25T01:34:01;100842.81;;;13.43;62.22
79221;BME280;72175;52.118;5.406;2024-03-25T01:36:26;100841.00;;;13.44;62.56
79221;BME280;72175;52.118;5.406;2024-03-25T01:38:52;100845.47;;;13.43;62.55
79221;BME280;72175;52.118;5.406;2024-03-25T01:41:20;100848.97;;;13.44;62.24
79221;BME280;72175;52.118;5.406;2024-03-25T01:43:55;100838.50;;;13.42;62.41
79221;BME280;72175;52.118;5.406;2024-03-25T01:46:20;100842.81;;;13.43;62.21
79221;BME280;72175;52.118;5.406;2024-03-25T01:48:48;100843.81;;;13.42;62.18
79221;BME280;72175;52.118;5.406;2024-03-25T01:51:17;100841.16;;;13.42;62.55
79221;BME280;72175;52.118;5.406;2024-03-25T01:53:44;100834.16;;;13.41;62.25
79221;BME280;72175;52.118;5.406;2024-03-25T01:56:10;100841.16;;;13.42;62.42
79221;BME280;72175;52.118;5.406;2024-03-25T01:58:38;100839.50;;;13.41;62.54
79221;BME280;72175;52.118;5.406;2024-03-25T02:01:03;100844.81;;;13.41;62.43
79221;BME280;72175;52.118;5.406;2024-03-25T02:03:29;100850.13;;;13.41;62.33
79221;BME280;72175;52.118;5.406;2024-03-25T02:05:55;100858.94;;;13.42;62.47
79221;BME280;72175;52.118;5.406;2024-03-25T02:08:22;100850.13;;;13.41;62.30
79221;BME280;72175;52.118;5.406;2024-03-25T02:10:49;100850.28;;;13.40;62.36
79221;BME280;72175;52.118;5.406;2024-03-25T02:13:15;100845.78;;;13.40;62.31
79221;BME280;72175;52.118;5.406;2024-03-25T02:15:41;100843.13;;;13.40;62.19
79221;BME280;72175;52.118;5.406;2024-03-25T02:18:07;100853.75;;;13.40;62.21
79221;BME280;72175;52.118;5.406;2024-03-25T02:20:32;100855.59;;;13.40;62.25
79221;BME280;72175;52.118;5.406;2024-03-25T02:22:58;100850.28;;;13.40;62.34
79221;BME280;72175;52.118;5.406;2024-03-25T02:25:24;100849.44;;;13.39;62.29
79221;BME280;72175;52.118;5.406;2024-03-25T02:27:50;100850.28;;;13.40;62.28
79221;BME280;72175;52.118;5.406;2024-03-25T02:30:15;100850.28;;;13.40;62.20
79221;BME280;72175;52.118;5.406;2024-03-25T02:32:42;100849.44;;;13.39;61.95
79221;BME280;72175;52.118;5.406;2024-03-25T02:35:08;100849.44;;;13.39;62.32
79221;BME280;72175;52.118;5.406;2024-03-25T02:37:36;100850.44;;;13.38;62.03
79221;BME280;72175;52.118;5.406;2024-03-25T02:40:02;100845.09;;;13.38;62.27
79221;BME280;72175;52.118;5.406;2024-03-25T02:42:30;100853.09;;;13.38;62.34
79221;BME280;72175;52.118;5.406;2024-03-25T02:44:56;100846.94;;;13.38;62.06
79221;BME280;72175;52.118;5.406;2024-03-25T02:47:22;100837.13;;;13.38;62.04
79221;BME280;72175;52.118;5.406;2024-03-25T02:49:47;100847.09;;;13.36;62.41
79221;BME280;72175;52.118;5.406;2024-03-25T02:52:14;100843.44;;;13.37;62.25
79221;BME280;72175;52.118;5.406;2024-03-25T02:54:39;100844.28;;;13.38;62.04
79221;BME280;72175;52.118;5.406;2024-03-25T02:57:07;100839.94;;;13.37;61.95
79221;BME280;72175;52.118;5.406;2024-03-25T02:59:32;100838.13;;;13.37;62.10
79221;BME280;72175;52.118;5.406;2024-03-25T03:01:58;100840.78;;;13.37;62.37
79221;BME280;72175;52.118;5.406;2024-03-25T03:04:23;100831.13;;;13.36;62.06
79221;BME280;72175;52.118;5.406;2024-03-25T03:06:49;100832.81;;;13.37;62.29
79221;BME280;72175;52.118;5.406;2024-03-25T03:09:14;100831.13;;;13.36;61.86
79221;BME280;72175;52.118;5.406;2024-03-25T03:11:50;100830.31;;;13.36;62.08
79221;BME280;72175;52.118;5.406;2024-03-25T03:14:18;100835.47;;;13.37;61.98
79221;BME280;72175;52.118;5.406;2024-03-25T03:16:43;100825.00;;;13.36;61.99
79221;BME280;72175;52.118;5.406;2024-03-25T03:19:09;100834.78;;;13.35;61.96
79221;BME280;72175;52.118;5.406;2024-03-25T03:21:56;100837.44;;;13.35;61.85
79221;BME280;72175;52.118;5.406;2024-03-25T03:24:22;100829.47;;;13.35;62.09
79221;BME280;72175;52.118;5.406;2024-03-25T03:26:49;100825.97;;;13.35;62.22
79221;BME280;72175;52.118;5.406;2024-03-25T03:29:18;100833.13;;;13.34;61.86
79221;BME280;72175;52.118;5.406;2024-03-25T03:31:43;100830.47;;;13.34;61.96
79221;BME280;72175;52.118;5.406;2024-03-25T03:34:09;100822.47;;;13.34;62.34
79221;BME280;72175;52.118;5.406;2024-03-25T03:36:35;100821.66;;;13.34;62.01
79221;BME280;72175;52.118;5.406;2024-03-25T03:39:00;100823.47;;;13.33;62.42
79221;BME280;72175;52.118;5.406;2024-03-25T03:41:26;100823.47;;;13.33;62.05
79221;BME280;72175;52.118;5.406;2024-03-25T03:43:51;100820.81;;;13.33;61.85
79221;BME280;72175;52.118;5.406;2024-03-25T03:46:17;100819.16;;;13.32;61.90
79221;BME280;72175;52.118;5.406;2024-03-25T03:48:42;100822.63;;;13.32;61.88
79221;BME280;72175;52.118;5.406;2024-03-25T03:51:08;100820.97;;;13.31;61.84
79221;BME280;72175;52.118;5.406;2024-03-25T03:53:34;100824.47;;;13.32;62.16
79221;BME280;72175;52.118;5.406;2024-03-25T03:56:07;100819.16;;;13.32;62.22
79221;BME280;72175;52.118;5.406;2024-03-25T03:58:35;100815.66;;;13.31;62.20
79221;BME280;72175;52.118;5.406;2024-03-25T04:01:01;100808.69;;;13.30;62.20
79221;BME280;72175;52.118;5.406;2024-03-25T04:03:26;100814.84;;;13.31;62.19
79221;BME280;72175;52.118;5.406;2024-03-25T04:05:54;100806.88;;;13.31;61.88
79221;BME280;72175;52.118;5.406;2024-03-25T04:08:21;100799.91;;;13.30;61.84
79221;BME280;72175;52.118;5.406;2024-03-25T04:10:46;100799.91;;;13.30;61.92
79221;BME280;72175;52.118;5.406;2024-03-25T04:13:12;100798.06;;;13.30;61.84
79221;BME280;72175;52.118;5.406;2024-03-25T04:15:38;100805.22;;;13.30;61.83
79221;BME280;72175;52.118;5.406;2024-03-25T04:18:04;100807.88;;;13.30;61.85
79221;BME280;72175;52.118;5.406;2024-03-25T04:20:36;100806.19;;;13.29;61.65
79221;BME280;72175;52.118;5.406;2024-03-25T04:23:12;100812.34;;;13.29;61.96
79221;BME280;72175;52.118;5.406;2024-03-25T04:26:02;100811.50;;;13.29;62.15
79221;BME280;72175;52.118;5.406;2024-03-25T04:28:27;100814.16;;;13.29;62.13
79221;BME280;72175;52.118;5.406;2024-03-25T04:30:56;100819.50;;;13.29;62.00
79221;BME280;72175;52.118;5.406;2024-03-25T04:33:22;100810.69;;;13.28;61.84
79221;BME280;72175;52.118;5.406;2024-03-25T04:35:47;100810.69;;;13.28;61.94
79221;BME280;72175;52.118;5.406;2024-03-25T04:38:15;100813.34;;;13.28;62.16
79221;BME280;72175;52.118;5.406;2024-03-25T04:40:40;100810.84;;;13.27;62.00
79221;BME280;72175;52.118;5.406;2024-03-25T04:43:06;100812.50;;;13.28;62.08
79221;BME280;72175;52.118;5.406;2024-03-25T04:45:32;100810.84;;;13.27;62.04
79221;BME280;72175;52.118;5.406;2024-03-25T04:47:57;100816.97;;;13.27;61.89
79221;BME280;72175;52.118;5.406;2024-03-25T04:50:23;100810.00;;;13.26;61.71
79221;BME280;72175;52.118;5.406;2024-03-25T04:52:48;100804.69;;;13.26;62.03
79221;BME280;72175;52.118;5.406;2024-03-25T04:55:14;100813.66;;;13.25;61.76
79221;BME280;72175;52.118;5.406;2024-03-25T04:57:40;100814.47;;;13.26;61.89
79221;BME280;72175;52.118;5.406;2024-03-25T05:00:05;100813.66;;;13.25;61.97
79221;BME280;72175;52.118;5.406;2024-03-25T05:02:32;100810.16;;;13.25;61.55
79221;BME280;72175;52.118;5.406;2024-03-25T05:04:57;100815.47;;;13.25;61.70
79221;BME280;72175;52.118;5.406;2024-03-25T05:07:23;100812.81;;;13.25;61.80
79221;BME280;72175;52.118;5.406;2024-03-25T05:09:48;100818.13;;;13.25;61.61
79221;BME280;72175;52.118;5.406;2024-03-25T05:12:14;100819.13;;;13.24;61.86
79221;BME280;72175;52.118;5.406;2024-03-25T05:14:45;100825.25;;;13.24;61.59
79221;BME280;72175;52.118;5.406;2024-03-25T05:17:11;100819.13;;;13.24;61.80
79221;BME280;72175;52.118;5.406;2024-03-25T05:19:36;100826.25;;;13.23;61.68
79221;BME280;72175;52.118;5.406;2024-03-25T05:22:02;100832.41;;;13.24;61.87
79221;BME280;72175;52.118;5.406;2024-03-25T05:24:27;100831.56;;;13.23;61.88
79221;BME280;72175;52.118;5.406;2024-03-25T05:26:53;100837.88;;;13.22;61.94
79221;BME280;72175;52.118;5.406;2024-03-25T05:29:19;100835.22;;;13.22;61.71
79221;BME280;72175;52.118;5.406;2024-03-25T05:31:57;100844.00;;;13.23;61.66
79221;BME280;72175;52.118;5.406;2024-03-25T05:34:24;100840.53;;;13.22;61.58
79221;BME280;72175;52.118;5.406;2024-03-25T05:36:52;100838.84;;;13.21;61.68
79221;BME280;72175;52.118;5.406;2024-03-25T05:39:18;100845.00;;;13.22;61.74
79221;BME280;72175;52.118;5.406;2024-03-25T05:41:44;100845.00;;;13.22;61.80
79221;BME280;72175;52.118;5.406;2024-03-25T05:44:10;100846.81;;;13.21;61.64
79221;BME280;72175;52.118;5.406;2024-03-25T05:46:41;100844.16;;;13.21;61.80
79221;BME280;72175;52.118;5.406;2024-03-25T05:49:07;100833.53;;;13.21;61.81
79221;BME280;72175;52.118;5.406;2024-03-25T05:51:33;100828.22;;;13.21;61.86
79221;BME280;72175;52.118;5.406;2024-03-25T05:53:59;100831.88;;;13.20;61.57
79221;BME280;72175;52.118;5.406;2024-03-25T05:56:24;100834.53;;;13.20;61.79
79221;BME280;72175;52.118;5.406;2024-03-25T05:58:59;100836.34;;;13.20;61.83
79221;BME280;72175;52.118;5.406;2024-03-25T06:01:25;100836.34;;;13.20;61.57
79221;BME280;72175;52.118;5.406;2024-03-25T06:03:50;100840.81;;;13.19;61.77
79221;BME280;72175;52.118;5.406;2024-03-25T06:06:16;100841.66;;;13.20;61.42
79221;BME280;72175;52.118;5.406;2024-03-25T06:08:58;100835.50;;;13.19;61.74
79221;BME280;72175;52.118;5.406;2024-03-25T06:11:25;100830.19;;;13.19;61.46
79221;BME280;72175;52.118;5.406;2024-03-25T06:13:59;100832.03;;;13.19;61.35
79221;BME280;72175;52.118;5.406;2024-03-25T06:16:24;100829.38;;;13.19;61.76
79221;BME280;72175;52.118;5.406;2024-03-25T06:18:49;100827.69;;;13.18;61.80
79221;BME280;72175;52.118;5.406;2024-03-25T06:21:16;100833.84;;;13.18;61.46
79221;BME280;72175;52.118;5.406;2024-03-25T06:23:41;100832.03;;;13.19;61.80
79221;BME280;72175;52.118;5.406;2024-03-25T06:26:10;100827.69;;;13.18;61.72
79221;BME280;72175;52.118;5.406;2024-03-25T06:28:35;100823.38;;;13.17;61.67
79221;BME280;72175;52.118;5.406;2024-03-25T06:31:01;100825.03;;;13.18;61.66
79221;BME280;72175;52.118;5.406;2024-03-25T06:33:45;100815.41;;;13.17;61.31
79221;BME280;72175;52.118;5.406;2024-03-25T06:36:29;100818.06;;;13.17;61.60
79221;BME280;72175;52.118;5.406;2024-03-25T06:39:04;100817.22;;;13.16;61.52
79221;BME280;72175;52.118;5.406;2024-03-25T06:41:32;100820.72;;;13.17;61.65
79221;BME280;72175;52.118;5.406;2024-03-25T06:44:06;100823.53;;;13.15;61.24
79221;BME280;72175;52.118;5.406;2024-03-25T06:46:32;100827.84;;;13.16;61.62
79221;BME280;72175;52.118;5.406;2024-03-25T06:48:57;100824.34;;;13.16;61.46
79221;BME280;72175;52.118;5.406;2024-03-25T06:51:23;100821.69;;;13.16;61.35
79221;BME280;72175;52.118;5.406;2024-03-25T06:53:48;100827.00;;;13.16;61.79
79221;BME280;72175;52.118;5.406;2024-03-25T06:56:14;100822.72;;;13.15;61.69
79221;BME280;72175;52.118;5.406;2024-03-25T06:58:40;100825.38;;;13.15;61.49
79221;BME280;72175;52.118;5.406;2024-03-25T07:01:07;100828.03;;;13.15;61.44
79221;BME280;72175;52.118;5.406;2024-03-25T07:03:34;100814.75;;;13.15;61.58
79221;BME280;72175;52.118;5.406;2024-03-25T07:06:03;100829.66;;;13.16;61.43
79221;BME280;72175;52.118;5.406;2024-03-25T07:08:32;100828.84;;;13.15;61.55
79221;BME280;72175;52.118;5.406;2024-03-25T07:10:58;100824.50;;;13.14;61.64
79221;BME280;72175;52.118;5.406;2024-03-25T07:13:25;100826.19;;;13.15;61.42
79221;BME280;72175;52.118;5.406;2024-03-25T07:15:51;100822.72;;;13.15;61.24
79221;BME280;72175;52.118;5.406;2024-03-25T07:18:17;100830.69;;;13.15;61.61
79221;BME280;72175;52.118;5.406;2024-03-25T07:20:43;100827.16;;;13.14;61.48
79221;BME280;72175;52.118;5.406;2024-03-25T07:23:09;100817.41;;;13.15;61.27
79221;BME280;72175;52.118;5.406;2024-03-25T07:25:36;100823.66;;;13.14;61.38
79221;BME280;72175;52.118;5.406;2024-03-25T07:28:02;100820.06;;;13.15;61.49
79221;BME280;72175;52.118;5.406;2024-03-25T07:31:39;100823.38;;;13.17;61.30
79221;BME280;72175;52.118;5.406;2024-03-25T07:33:53;100819.72;;;13.18;61.61
79221;BME280;72175;52.118;5.406;2024-03-25T07:36:22;100824.03;;;13.19;61.44
79221;BME280;72175;52.118;5.406;2024-03-25T07:38:48;100826.56;;;13.20;61.53
79221;BME280;72175;52.118;5.406;2024-03-25T07:41:15;100824.72;;;13.21;61.53
79221;BME280;72175;52.118;5.406;2024-03-25T07:43:41;100832.53;;;13.22;61.39
79221;BME280;72175;52.118;5.406;2024-03-25T07:46:09;100826.25;;;13.23;61.13
79221;BME280;72175;52.118;5.406;2024-03-25T07:48:35;100821.78;;;13.24;61.36
79221;BME280;72175;52.118;5.406;2024-03-25T07:51:01;100822.59;;;13.24;61.44
79221;BME280;72175;52.118;5.406;2024-03-25T07:53:26;100825.94;;;13.26;61.40
79221;BME280;72175;52.118;5.406;2024-03-25T07:55:52;100835.59;;;13.27;61.72
79221;BME280;72175;52.118;5.406;2024-03-25T07:58:17;100829.13;;;13.30;61.16
79221;BME280;72175;52.118;5.406;2024-03-25T08:00:43;100831.78;;;13.30;61.45
79221;BME280;72175;52.118;5.406;2024-03-25T08:03:09;100828.13;;;13.31;61.18
79221;BME280;72175;52.118;5.406;2024-03-25T08:05:34;100834.25;;;13.31;61.02
79221;BME280;72175;52.118;5.406;2024-03-25T08:07:59;100832.44;;;13.32;61.33
79221;BME280;72175;52.118;5.406;2024-03-25T08:10:25;100836.75;;;13.33;61.29
79221;BME280;72175;52.118;5.406;2024-03-25T08:12:50;100833.94;;;13.35;61.51
79221;BME280;72175;52.118;5.406;2024-03-25T08:15:16;100841.91;;;13.35;61.12
79221;BME280;72175;52.118;5.406;2024-03-25T08:17:42;100848.06;;;13.35;61.04
79221;BME280;72175;52.118;5.406;2024-03-25T08:20:08;100846.25;;;13.36;61.59
79221;BME280;72175;52.118;5.406;2024-03-25T08:22:37;100847.91;;;13.37;61.52
79221;BME280;72175;52.118;5.406;2024-03-25T08:25:05;100847.09;;;13.36;61.08
79221;BME280;72175;52.118;5.406;2024-03-25T08:27:31;100850.44;;;13.38;61.08
79221;BME280;72175;52.118;5.406;2024-03-25T08:29:56;100845.09;;;13.38;61.36
79221;BME280;72175;52.118;5.406;2024-03-25T08:32:22;100846.78;;;13.39;61.16
79221;BME280;72175;52.118;5.406;2024-03-25T08:34:47;100847.63;;;13.40;61.01
79221;BME280;72175;52.118;5.406;2024-03-25T08:37:13;100843.13;;;13.40;61.21
79221;BME280;72175;52.118;5.406;2024-03-25T08:39:38;100847.47;;;13.41;61.27
79221;BME280;72175;52.118;5.406;2024-03-25T08:42:04;100850.13;;;13.41;61.68
79221;BME280;72175;52.118;5.406;2024-03-25T08:44:30;100846.47;;;13.42;61.26
79221;BME280;72175;52.118;5.406;2024-03-25T08:46:55;100847.31;;;13.43;61.50
79221;BME280;72175;52.118;5.406;2024-03-25T08:49:21;100845.47;;;13.43;61.54
79221;BME280;72175;52.118;5.406;2024-03-25T08:51:47;100849.81;;;13.44;61.40
79221;BME280;72175;52.118;5.406;2024-03-25T08:54:12;100842.00;;;13.43;61.50
79221;BME280;72175;52.118;5.406;2024-03-25T08:56:38;100844.50;;;13.44;61.19
79221;BME280;72175;52.118;5.406;2024-03-25T08:59:03;100836.53;;;13.44;61.30
79221;BME280;72175;52.118;5.406;2024-03-25T09:01:29;100844.34;;;13.46;61.67
79221;BME280;72175;52.118;5.406;2024-03-25T09:03:56;100834.69;;;13.45;61.02
79221;BME280;72175;52.118;5.406;2024-03-25T09:06:21;100834.53;;;13.46;61.61
79221;BME280;72175;52.118;5.406;2024-03-25T09:08:47;100831.06;;;13.46;61.24
79221;BME280;72175;52.118;5.406;2024-03-25T09:11:31;100834.69;;;13.45;61.28
79221;BME280;72175;52.118;5.406;2024-03-25T09:13:57;100827.56;;;13.45;61.13
79221;BME280;72175;52.118;5.406;2024-03-25T09:16:22;100828.25;;;13.47;61.27
79221;BME280;72175;52.118;5.406;2024-03-25T09:18:48;100825.72;;;13.46;61.23
79221;BME280;72175;52.118;5.406;2024-03-25T09:21:13;100830.91;;;13.47;61.17
79221;BME280;72175;52.118;5.406;2024-03-25T09:23:39;100826.38;;;13.48;61.26
79221;BME280;72175;52.118;5.406;2024-03-25T09:26:05;100828.88;;;13.49;61.14
79221;BME280;72175;52.118;5.406;2024-03-25T09:28:30;100834.22;;;13.49;61.52
79221;BME280;72175;52.118;5.406;2024-03-25T09:30:56;100827.06;;;13.50;61.25
79221;BME280;72175;52.118;5.406;2024-03-25T09:33:21;100824.25;;;13.51;61.51
79221;BME280;72175;52.118;5.406;2024-03-25T09:35:47;100825.09;;;13.52;61.57
79221;BME280;72175;52.118;5.406;2024-03-25T09:38:13;100818.78;;;13.53;61.36
79221;BME280;72175;52.118;5.406;2024-03-25T09:40:41;100817.78;;;13.54;61.16
79221;BME280;72175;52.118;5.406;2024-03-25T09:43:23;100816.81;;;13.55;61.42
79221;BME280;72175;52.118;5.406;2024-03-25T09:45:49;100818.47;;;13.56;61.23
79221;BME280;72175;52.118;5.406;2024-03-25T09:48:18;100811.16;;;13.58;61.59
79221;BME280;72175;52.118;5.406;2024-03-25T09:50:45;100817.31;;;13.58;61.66
79221;BME280;72175;52.118;5.406;2024-03-25T09:53:10;100815.50;;;13.59;61.38
79221;BME280;72175;52.118;5.406;2024-03-25T09:55:36;100817.16;;;13.60;61.37
79221;BME280;72175;52.118;5.406;2024-03-25T09:58:03;100811.69;;;13.61;61.52
79221;BME280;72175;52.118;5.406;2024-03-25T10:00:30;100809.03;;;13.61;61.53
79221;BME280;72175;52.118;5.406;2024-03-25T10:02:55;100805.38;;;13.62;61.30
79221;BME280;72175;52.118;5.406;2024-03-25T10:05:21;100797.22;;;13.64;61.39
79221;BME280;72175;52.118;5.406;2024-03-25T10:07:46;100785.59;;;13.65;61.29
79221;BME280;72175;52.118;5.406;2024-03-25T10:10:12;100774.13;;;13.64;61.80
79221;BME280;72175;52.118;5.406;2024-03-25T10:12:37;100778.47;;;13.65;61.50
79221;BME280;72175;52.118;5.406;2024-03-25T10:15:06;100772.97;;;13.67;61.51
79221;BME280;72175;52.118;5.406;2024-03-25T10:17:33;100778.31;;;13.67;61.50
79221;BME280;72175;52.118;5.406;2024-03-25T10:19:59;100783.47;;;13.69;61.38
79221;BME280;72175;52.118;5.406;2024-03-25T10:22:24;100776.31;;;13.69;61.60
79221;BME280;72175;52.118;5.406;2024-03-25T10:24:50;100771.00;;;13.69;61.50
79221;BME280;72175;52.118;5.406;2024-03-25T10:27:19;100772.50;;;13.72;61.62
79221;BME280;72175;52.118;5.406;2024-03-25T10:29:53;100765.38;;;13.72;61.50
79221;BME280;72175;52.118;5.406;2024-03-25T10:32:19;100762.72;;;13.72;61.13
79221;BME280;72175;52.118;5.406;2024-03-25T10:34:44;100754.72;;;13.72;61.52
79221;BME280;72175;52.118;5.406;2024-03-25T10:37:11;100760.72;;;13.74;61.38
79221;BME280;72175;52.118;5.406;2024-03-25T10:39:47;100752.59;;;13.76;61.32
79221;BME280;72175;52.118;5.406;2024-03-25T10:42:14;100753.41;;;13.76;61.15
79221;BME280;72175;52.118;5.406;2024-03-25T10:44:40;100752.44;;;13.77;61.33
79221;BME280;72175;52.118;5.406;2024-03-25T10:47:07;100748.78;;;13.78;61.33
79221;BME280;72175;52.118;5.406;2024-03-25T10:49:49;100749.41;;;13.80;61.06
79221;BME280;72175;52.118;5.406;2024-03-25T10:52:15;100744.28;;;13.79;61.04
79221;BME280;72175;52.118;5.406;2024-03-25T10:54:49;100742.47;;;13.79;61.09
79221;BME280;72175;52.118;5.406;2024-03-25T10:57:16;100737.97;;;13.80;60.88
79221;BME280;72175;52.118;5.406;2024-03-25T10:59:46;100733.47;;;13.80;61.22
79221;BME280;72175;52.118;5.406;2024-03-25T11:02:12;100734.31;;;13.81;60.90
79221;BME280;72175;52.118;5.406;2024-03-25T11:04:38;100727.16;;;13.81;61.26
79221;BME280;72175;52.118;5.406;2024-03-25T11:07:07;100731.63;;;13.81;60.87
79221;BME280;72175;52.118;5.406;2024-03-25T11:09:33;100729.81;;;13.81;61.37
79221;BME280;72175;52.118;5.406;2024-03-25T11:11:58;100725.34;;;13.82;61.38
79221;BME280;72175;52.118;5.406;2024-03-25T11:14:27;100727.81;;;13.83;61.44
79221;BME280;72175;52.118;5.406;2024-03-25T11:16:54;100723.50;;;13.82;60.99
79221;BME280;72175;52.118;5.406;2024-03-25T11:19:21;100728.66;;;13.84;61.46
79221;BME280;72175;52.118;5.406;2024-03-25T11:21:53;100711.72;;;13.85;61.26
79221;BME280;72175;52.118;5.406;2024-03-25T11:24:28;100706.41;;;13.85;61.32
79221;BME280;72175;52.118;5.406;2024-03-25T11:26:56;100706.41;;;13.85;61.06
79221;BME280;72175;52.118;5.406;2024-03-25T11:29:21;100699.25;;;13.85;60.87
79221;BME280;72175;52.118;5.406;2024-03-25T11:31:49;100704.56;;;13.85;61.15
79221;BME280;72175;52.118;5.406;2024-03-25T11:34:15;100706.22;;;13.86;61.01
79221;BME280;72175;52.118;5.406;2024-03-25T11:36:40;100708.06;;;13.86;61.27
79221;BME280;72175;52.118;5.406;2024-03-25T11:39:06;100696.44;;;13.87;61.43
79221;BME280;72175;52.118;5.406;2024-03-25T11:41:44;100693.75;;;13.87;61.25
79221;BME280;72175;52.118;5.406;2024-03-25T11:44:11;100691.94;;;13.87;60.98
79221;BME280;72175;52.118;5.406;2024-03-25T11:46:40;100683.13;;;13.87;60.97
79221;BME280;72175;52.118;5.406;2024-03-25T11:49:07;100687.44;;;13.88;61.33
79221;BME280;72175;52.118;5.406;2024-03-25T11:51:33;100681.31;;;13.87;61.46
79221;BME280;72175;52.118;5.406;2024-03-25T11:53:59;100678.66;;;13.87;61.08
79221;BME280;72175;52.118;5.406;2024-03-25T11:56:26;100673.31;;;13.87;61.25
79221;BME280;72175;52.118;5.406;2024-03-25T11:58:51;100665.34;;;13.87;61.43
79221;BME280;72175;52.118;5.406;2024-03-25T12:01:17;100662.69;;;13.87;61.01
79221;BME280;72175;52.118;5.406;2024-03-25T12:03:42;100665.34;;;13.87;61.00
79221;BME280;72175;52.118;5.406;2024-03-25T12:06:08;100657.38;;;13.87;61.15
79221;BME280;72175;52.118;5.406;2024-03-25T12:08:33;100652.88;;;13.88;60.91
79221;BME280;72175;52.118;5.406;2024-03-25T12:11:02;100643.22;;;13.87;61.17
79221;BME280;72175;52.118;5.406;2024-03-25T12:13:43;100641.41;;;13.87;61.55
79221;BME280;72175;52.118;5.406;2024-03-25T12:16:09;100641.41;;;13.87;61.23
79221;BME280;72175;52.118;5.406;2024-03-25T12:18:39;100638.75;;;13.87;61.16
79221;BME280;72175;52.118;5.406;2024-03-25T12:21:06;100633.25;;;13.89;60.98
79221;BME280;72175;52.118;5.406;2024-03-25T12:23:32;100627.94;;;13.89;61.41
79221;BME280;72175;52.118;5.406;2024-03-25T12:26:02;100620.97;;;13.88;61.41
79221;BME280;72175;52.118;5.406;2024-03-25T12:28:30;100617.31;;;13.89;61.39
79221;BME280;72175;52.118;5.406;2024-03-25T12:30:56;100613.81;;;13.88;61.28
79221;BME280;72175;52.118;5.406;2024-03-25T12:33:24;100611.81;;;13.90;61.58
79221;BME280;72175;52.118;5.406;2024-03-25T12:35:51;100608.34;;;13.90;61.41
79221;BME280;72175;52.118;5.406;2024-03-25T12:38:30;100607.50;;;13.89;61.56
79221;BME280;72175;52.118;5.406;2024-03-25T12:41:10;100619.81;;;13.90;61.14
79221;BME280;72175;52.118;5.406;2024-03-25T12:43:42;100607.34;;;13.91;61.06
79221;BME280;72175;52.118;5.406;2024-03-25T12:46:07;100607.34;;;13.91;61.74
79221;BME280;72175;52.118;5.406;2024-03-25T12:48:34;100610.50;;;13.94;61.79
79221;BME280;72175;52.118;5.406;2024-03-25T12:51:00;100604.50;;;13.92;61.69